createdAt,value
2024-03-05T00:09:28.952Z,1008.17
2024-03-05T00:19:29.577Z,1008.22
2024-03-05T00:29:30.090Z,1008.26
2024-03-05T00:39:30.717Z,1008.31
2024-03-05T00:49:31.331Z,1008.38
2024-03-05T00:59:31.887Z,1008.42
2024-03-05T01:09:32.435Z,1008.49
2024-03-05T01:19:33.068Z,1008.47
2024-03-05T01:29:33.591Z,1008.48
2024-03-05T01:39:34.201Z,1008.46
2024-03-05T01:49:34.810Z,1008.46
2024-03-05T01:59:35.338Z,1008.51
2024-03-05T02:09:36.052Z,1008.53
2024-03-05T02:19:36.711Z,1008.54
2024-03-05T02:29:37.229Z,1008.63
2024-03-05T02:39:37.790Z,1008.63
2024-03-05T02:49:38.500Z,1008.69
2024-03-05T02:59:39.050Z,1008.88
2024-03-05T03:09:39.576Z,1008.97
2024-03-05T03:19:40.178Z,1009.01
2024-03-05T03:29:40.685Z,1009.10
2024-03-05T03:39:41.251Z,1009.17
2024-03-05T03:49:41.823Z,1009.20
2024-03-05T03:59:42.357Z,1009.17
2024-03-05T04:09:49.885Z,1009.40
2024-03-05T04:19:43.455Z,1009.48
2024-03-05T04:29:43.950Z,1009.53
2024-03-05T04:39:45.457Z,1009.49
2024-03-05T04:49:45.019Z,1009.47
2024-03-05T04:59:45.611Z,1009.53
2024-03-05T05:09:46.154Z,1009.65
2024-03-05T05:19:46.760Z,1009.74
2024-03-05T05:29:48.740Z,1009.71
2024-03-05T05:39:47.748Z,1009.80
2024-03-05T05:49:48.276Z,1009.77
2024-03-05T05:59:48.772Z,1009.89
2024-03-05T06:09:49.255Z,1009.99
2024-03-05T06:19:49.846Z,1010.08
2024-03-05T06:29:50.333Z,1010.17
2024-03-05T06:39:50.835Z,1010.26
2024-03-05T06:49:51.333Z,1010.31
2024-03-05T06:59:51.859Z,1010.40
2024-03-05T07:09:52.344Z,1010.39
2024-03-05T07:19:52.921Z,1010.41
2024-03-05T07:29:53.414Z,1010.40
2024-03-05T07:39:54.076Z,1010.41
2024-03-05T07:49:54.552Z,1010.46
2024-03-05T07:59:55.092Z,1010.48
2024-03-05T08:09:55.521Z,1010.48
2024-03-05T08:19:56.041Z,1010.49
2024-03-05T08:29:56.529Z,1010.53
2024-03-05T08:39:57.031Z,1010.56
2024-03-05T08:49:57.602Z,1010.49
2024-03-05T08:59:58.170Z,1010.58
2024-03-05T09:09:58.615Z,1010.61
2024-03-05T09:19:59.277Z,1010.64
2024-03-05T09:29:59.802Z,1010.72
2024-03-05T09:40:00.342Z,1010.78
2024-03-05T09:50:00.888Z,1010.84
2024-03-05T10:00:01.407Z,1010.82
2024-03-05T10:10:08.919Z,1010.86
2024-03-05T10:20:02.944Z,1010.81
2024-03-05T10:30:03.309Z,1010.76
2024-03-05T10:40:03.900Z,1010.80
2024-03-05T10:50:04.550Z,1010.77
2024-03-05T11:00:05.167Z,1010.76
2024-03-05T11:10:05.760Z,1010.79
2024-03-05T11:20:06.499Z,1010.83
2024-03-05T11:30:07.034Z,1010.88
2024-03-05T11:40:09.501Z,1010.86
2024-03-05T11:50:08.343Z,1010.85
2024-03-05T12:00:08.949Z,1010.92
2024-03-05T12:10:09.571Z,1010.92
2024-03-05T12:20:10.756Z,1010.91
2024-03-05T12:30:10.688Z,1010.97
2024-03-05T12:40:11.207Z,1010.93
2024-03-05T12:50:11.774Z,1010.94
2024-03-05T13:00:12.567Z,1010.93
2024-03-05T13:10:13.178Z,1010.89
2024-03-05T13:20:13.927Z,1010.95
2024-03-05T13:30:15.956Z,1010.92
2024-03-05T13:40:15.648Z,1010.93
2024-03-05T13:50:16.103Z,1010.94
2024-03-05T14:00:16.516Z,1010.97
2024-03-05T14:10:17.322Z,1010.97
2024-03-05T14:20:17.554Z,1011.00
2024-03-05T14:30:18.217Z,1011.09
2024-03-05T14:40:18.876Z,1011.19
2024-03-05T14:50:19.537Z,1011.26
2024-03-05T15:00:20.425Z,1011.33
2024-03-05T15:10:21.049Z,1011.40
2024-03-05T15:20:21.680Z,1011.45
2024-03-05T15:30:22.170Z,1011.45
2024-03-05T15:40:23.096Z,1011.53
2024-03-05T15:50:23.076Z,1011.64
2024-03-05T16:00:23.685Z,1011.68
2024-03-05T16:10:24.758Z,1011.76
2024-03-05T16:20:25.156Z,1011.84
2024-03-05T16:30:25.766Z,1011.94
2024-03-05T16:40:26.494Z,1012.01
2024-03-05T16:50:28.336Z,1012.12
2024-03-05T17:00:27.603Z,1012.25
2024-03-05T17:10:28.205Z,1012.31
2024-03-05T17:20:28.700Z,1012.37
2024-03-05T17:30:29.328Z,1012.42
2024-03-05T17:40:29.959Z,1012.48
2024-03-05T17:50:30.616Z,1012.56
2024-03-05T18:00:31.641Z,1012.67
2024-03-05T18:10:31.877Z,1012.76
2024-03-05T18:20:32.580Z,1012.81
2024-03-05T18:30:33.396Z,1012.85
2024-03-05T18:40:34.499Z,1012.91
2024-03-05T18:50:41.888Z,1012.89
2024-03-05T19:00:35.130Z,1012.98
2024-03-05T19:10:36.085Z,1013.04
2024-03-05T19:20:36.965Z,1013.14
2024-03-05T19:30:37.532Z,1013.18
2024-03-05T19:40:38.247Z,1013.17
2024-03-05T19:50:39.309Z,1013.21
2024-03-05T20:00:39.584Z,1013.13
2024-03-05T20:10:40.208Z,1013.09
2024-03-05T20:20:41.059Z,1013.18
2024-03-05T20:30:41.900Z,1013.34
2024-03-05T20:40:42.458Z,1013.38
2024-03-05T20:50:43.099Z,1013.49
2024-03-05T21:00:43.844Z,1013.55
2024-03-05T21:10:44.742Z,1013.60
2024-03-05T21:20:45.215Z,1013.64
2024-03-05T21:30:45.497Z,1013.70
2024-03-05T21:40:46.157Z,1013.79
2024-03-05T21:50:46.868Z,1013.85
2024-03-05T22:00:47.521Z,1013.87
2024-03-05T22:10:48.558Z,1013.94
2024-03-05T22:20:49.045Z,1013.98
2024-03-05T22:30:49.247Z,1014.04
2024-03-05T22:40:49.930Z,1014.15
2024-03-05T22:50:50.730Z,1014.23
2024-03-05T23:00:58.358Z,1014.33
2024-03-05T23:10:52.130Z,1014.37
2024-03-05T23:20:52.723Z,1014.41
2024-03-05T23:30:53.473Z,1014.46
2024-03-05T23:40:55.970Z,1014.53
2024-03-05T23:50:54.938Z,1014.57
